Ana Sayfa
METAR-TAF:

METAR-TAF

Havaalanları :

Harrisburg-Raleigh Airport

Harrisburg, Illinois, Amerika Birleşik Devletleri

Enlem: 37-48-41N, Boylam: 088-32-57W, yükseklik: 121 m

Güncel hava durumu gözlemi

Rapor saat 20:15 UTC de 37 dakika önce yapıldı.
Sakin rüzgar
Sıcaklık 31°C
Nem 52%
Basınç 1025 hPa
Görüş mesafesi: 16.1 km
6000 ft yükseklikte parçalı bulutlu

METAR: KHSB 202015Z AUTO 00000KT 10SM SCT060 31/20 A3027 RMK AO2 T03110199

Saat: 15:52 (20:52 UTC)


TAF: eksik

4.000'den fazla havaalanı için hava durumu gözlemleri ve tahminleri (METAR ve TAF raporları).

Kullanılabilir istasyonlar harita üzerinde sarı ve kırmızı noktalarla gösterilir.

İstasyonun adını görmek için fareyi noktanın üzerinde gezdirin.

Sonrasında hava gözlem ve tahminlerini görmek için tıklayın.

Haritayı değiştirmek için: yaklaştırmak için siyah artı işaretli yeşil düğmeye ve uzaklaştırmak için de eksi işaretli düğmeye hızla tıklayın; bitişik haritalar için yeşil okları kullanın.


METAR-TAF: